Airfield :
LOGIN :

Register | Disclaimer

   EN    FR    IT 

 










Legend :    VFR   Marginal VFR   IFR   Intensive IFR   Very Intensive IFR
Visi :
Ceiling :
>= 8 km
>= 3000ft
5 to 8 km
1000 to 3000 ft
1500m to 5 km
500 to 1000 ft
800 to 1500m
200 to 500 ft
< 800m
< 200 ft
Symbols :   Thunderstorms  Fog  Heavy snow  Heavy precipitations  Wind > 20 kt
SIGMETs :     Misc.  Thunderstorms  Icing  Turbulence  Mountain Waves  Volcanic Ashes






- Airport Elevation : 768 ft
- IATA code : MXP


LIMC - Milano Malpensa

CURRENT METAR :
  • 220050Z 04003KT 5000 BR SCT050 08/05 Q1018 NOSIG

EXPIRED METARs :
  • 220020Z 04003KT 5000 BR NSC 08/05 Q1018 NOSIG
  • 212350Z 04002KT 5000 BR SCT060 09/05 Q1018 NOSIG
  • 212320Z VRB01KT 5000 BR SCT060 09/05 Q1018 NOSIG
  • 212250Z 06002KT 5000 BR NSC 09/05 Q1019 NOSIG
  • 212220Z 04003KT 5000 BR NSC 08/05 Q1019 NOSIG
  • 212150Z 05003KT 5000 BR NSC 08/05 Q1019 NOSIG
  • 212120Z 03002KT 6000 NSC 08/05 Q1020 NOSIG
  • 212050Z 07003KT 050V150 6000 NSC 08/05 Q1020 NOSIG
  • 212020Z VRB01KT 6000 NSC 09/04 Q1020 NOSIG

TAF TAF LIMC
Valid from the 22 at 00:00 until the 23 at 06:00 UTC


212300Z 2200/2306 VRB05KT 6000 FEW030
TEMPO 2203/2306 4000 RA



MET'MAP, your aeronautical weather chart ! - Copyright ORBIFLY December 2007 - Disclaimer

ORBIFLY MET'MAP TEAM :

Programming & Development : Alexandra Zaïnal
Original concept : Baudouin d'Aumeries
Technical & hardware support : Manuel Goepfert
Assistance : Marc-Olivier Méhu




SOURCES & CREDITS :

   NOAA